createdAt,value
2019-03-09T00:00:15.346Z,53.1
2019-03-09T00:03:15.104Z,53.5
2019-03-09T00:06:15.962Z,53.5
2019-03-09T00:09:15.665Z,53.4
2019-03-09T00:12:15.658Z,53.0
2019-03-09T00:15:15.462Z,52.8
2019-03-09T00:18:15.275Z,52.7
2019-03-09T00:21:15.922Z,52.8
2019-03-09T00:24:15.500Z,52.7
2019-03-09T00:27:15.230Z,53.0
2019-03-09T00:30:15.873Z,53.4
2019-03-09T00:33:15.448Z,53.1
2019-03-09T00:36:15.234Z,53.2
2019-03-09T00:39:15.954Z,53.3
2019-03-09T00:42:15.687Z,53.1
2019-03-09T00:45:15.289Z,53.2
2019-03-09T00:48:15.010Z,53.5
2019-03-09T00:51:15.715Z,53.0
2019-03-09T00:54:15.850Z,53.0
2019-03-09T00:57:15.563Z,52.8
2019-03-09T01:00:15.156Z,52.7
2019-03-09T01:03:15.974Z,52.6
2019-03-09T01:06:15.482Z,52.6
2019-03-09T01:09:15.304Z,52.5
2019-03-09T01:12:15.846Z,52.9
2019-03-09T01:15:15.499Z,53.0
2019-03-09T01:18:15.605Z,52.9
2019-03-09T01:21:15.150Z,53.0
2019-03-09T01:24:15.810Z,52.8
2019-03-09T01:27:15.536Z,53.3
2019-03-09T01:30:15.204Z,53.0
2019-03-09T01:33:15.790Z,52.7
2019-03-09T01:36:14.913Z,53.1
2019-03-09T01:39:15.484Z,53.0
2019-03-09T01:42:15.015Z,53.1
2019-03-09T01:45:15.755Z,53.0
2019-03-09T01:48:15.467Z,53.0
2019-03-09T01:51:15.092Z,52.9
2019-03-09T01:54:15.748Z,53.1
2019-03-09T01:57:15.349Z,53.4
2019-03-09T02:00:14.966Z,53.2
2019-03-09T02:03:15.740Z,53.7
2019-03-09T02:06:15.484Z,53.1
2019-03-09T02:09:15.177Z,53.2
2019-03-09T02:12:15.802Z,53.5
2019-03-09T02:15:15.550Z,53.2
2019-03-09T02:18:15.321Z,53.4
2019-03-09T02:21:15.006Z,53.4
2019-03-09T02:24:15.794Z,53.8
2019-03-09T02:27:15.428Z,53.3
2019-03-09T02:30:15.255Z,53.3
2019-03-09T02:33:15.885Z,53.3
2019-03-09T02:36:15.449Z,53.4
2019-03-09T02:39:15.096Z,53.5
2019-03-09T02:42:15.495Z,54.1
2019-03-09T02:45:15.151Z,54.0
2019-03-09T02:48:15.407Z,54.8
2019-03-09T02:51:15.096Z,54.5
2019-03-09T02:54:15.773Z,54.6
2019-03-09T02:57:15.464Z,54.6
2019-03-09T03:00:15.023Z,54.8
2019-03-09T03:03:15.128Z,54.7
2019-03-09T03:06:15.912Z,55.0
2019-03-09T03:09:15.672Z,55.1
2019-03-09T03:12:15.621Z,55.1
2019-03-09T03:15:15.215Z,54.8
2019-03-09T03:18:15.835Z,55.1
2019-03-09T03:21:15.524Z,55.5
2019-03-09T03:24:15.279Z,55.8
2019-03-09T03:27:15.112Z,56.2
2019-03-09T03:30:15.750Z,57.9
2019-03-09T03:33:15.636Z,58.6
2019-03-09T03:36:15.342Z,59.8
2019-03-09T03:39:15.217Z,60.6
2019-03-09T03:42:15.709Z,60.1
2019-03-09T03:45:15.560Z,60.7
2019-03-09T03:48:15.269Z,62.4
2019-03-09T03:51:14.958Z,63.2
2019-03-09T03:54:15.566Z,62.2
2019-03-09T03:57:15.175Z,62.2
2019-03-09T04:00:15.923Z,63.0
2019-03-09T04:03:15.709Z,63.5
2019-03-09T04:06:15.643Z,63.0
2019-03-09T04:09:15.581Z,63.9
2019-03-09T04:12:15.532Z,63.6
2019-03-09T04:15:15.563Z,64.2
2019-03-09T04:18:15.311Z,64.0
2019-03-09T04:21:15.011Z,64.2
2019-03-09T04:24:15.762Z,63.9
2019-03-09T04:27:15.473Z,64.3
2019-03-09T04:30:15.126Z,64.2
2019-03-09T04:33:15.773Z,64.2
2019-03-09T04:36:15.532Z,64.5
2019-03-09T04:39:15.256Z,65.0
2019-03-09T04:42:15.950Z,65.1
2019-03-09T04:45:15.573Z,65.2
2019-03-09T04:48:15.182Z,65.8
2019-03-09T04:51:15.014Z,66.0
2019-03-09T04:54:15.674Z,66.0
2019-03-09T04:57:15.385Z,66.3
2019-03-09T05:00:15.093Z,66.3
2019-03-09T05:03:15.743Z,66.2
2019-03-09T05:06:15.579Z,66.4
2019-03-09T05:09:15.353Z,66.4
2019-03-09T05:12:15.608Z,66.1
2019-03-09T05:15:15.323Z,66.6
2019-03-09T05:18:15.318Z,66.8
2019-03-09T05:21:15.010Z,66.6
2019-03-09T05:24:15.949Z,66.8
2019-03-09T05:27:15.717Z,67.1
2019-03-09T05:30:15.505Z,67.2
2019-03-09T05:33:15.908Z,66.8
2019-03-09T05:36:15.719Z,66.6
2019-03-09T05:39:15.565Z,67.0
2019-03-09T05:42:15.542Z,66.7
2019-03-09T05:45:15.400Z,66.8
2019-03-09T05:48:15.135Z,66.4
2019-03-09T05:51:15.049Z,66.1
2019-03-09T05:54:15.745Z,66.3
2019-03-09T05:57:15.685Z,66.1
2019-03-09T06:00:15.640Z,66.1
2019-03-09T06:03:15.446Z,65.8
2019-03-09T06:06:15.623Z,65.7
2019-03-09T06:09:15.509Z,65.6
2019-03-09T06:12:15.173Z,65.5
2019-03-09T06:15:15.062Z,65.7
2019-03-09T06:18:15.038Z,65.5
2019-03-09T06:21:15.728Z,65.5
2019-03-09T06:24:15.677Z,65.5
2019-03-09T06:27:15.399Z,65.3
2019-03-09T06:30:15.252Z,65.3
2019-03-09T06:33:14.983Z,65.0
2019-03-09T06:36:15.840Z,65.4
2019-03-09T06:39:16.056Z,65.1
2019-03-09T06:42:15.709Z,65.3
2019-03-09T06:45:15.718Z,65.2
2019-03-09T06:48:15.813Z,64.9
2019-03-09T06:51:15.669Z,65.3
2019-03-09T06:54:15.496Z,65.1
2019-03-09T06:57:15.225Z,64.9
2019-03-09T07:00:15.888Z,64.8
2019-03-09T07:03:15.564Z,64.3
2019-03-09T07:06:15.666Z,63.7
2019-03-09T07:09:15.570Z,63.4
2019-03-09T07:12:15.441Z,62.7
2019-03-09T07:15:15.389Z,62.1
2019-03-09T07:18:15.645Z,61.2
2019-03-09T07:21:15.104Z,60.8
2019-03-09T07:24:15.944Z,60.9
2019-03-09T07:27:15.716Z,61.2
2019-03-09T07:30:15.452Z,61.1
2019-03-09T07:33:15.285Z,60.6
2019-03-09T07:36:15.257Z,59.8
2019-03-09T07:39:15.108Z,59.2
2019-03-09T07:42:15.931Z,58.1
2019-03-09T07:45:15.635Z,57.4
2019-03-09T07:48:15.529Z,57.2
2019-03-09T07:51:15.466Z,56.8
2019-03-09T07:54:15.453Z,56.9
2019-03-09T07:57:15.218Z,56.1
2019-03-09T08:00:14.916Z,55.8
2019-03-09T08:03:15.857Z,53.8
2019-03-09T08:06:15.794Z,52.9
2019-03-09T08:09:15.598Z,52.0
2019-03-09T08:12:15.375Z,51.3
2019-03-09T08:15:15.277Z,50.9
2019-03-09T08:18:15.366Z,50.1
2019-03-09T08:21:15.202Z,51.0
2019-03-09T08:24:14.938Z,50.1
2019-03-09T08:27:15.760Z,49.9
2019-03-09T08:30:15.652Z,49.5
2019-03-09T08:33:15.622Z,50.3
2019-03-09T08:36:15.467Z,50.3
2019-03-09T08:39:15.193Z,50.1
2019-03-09T08:42:15.650Z,51.1
2019-03-09T08:45:15.493Z,51.4
2019-03-09T08:48:15.284Z,52.8
2019-03-09T08:51:16.197Z,52.7
2019-03-09T08:54:15.235Z,53.9
2019-03-09T08:57:16.042Z,53.6
2019-03-09T09:00:15.735Z,53.7
2019-03-09T09:03:15.939Z,54.4
2019-03-09T09:06:15.793Z,54.6
2019-03-09T09:09:15.637Z,55.1
2019-03-09T09:12:15.383Z,55.0
2019-03-09T09:15:15.332Z,55.1
2019-03-09T09:18:15.220Z,54.8
2019-03-09T09:21:15.024Z,54.9
2019-03-09T09:24:15.707Z,54.1
2019-03-09T09:27:15.391Z,53.9
2019-03-09T09:30:15.282Z,54.2
2019-03-09T09:33:15.716Z,54.1
2019-03-09T09:36:15.533Z,54.1
2019-03-09T09:39:15.442Z,54.2
2019-03-09T09:42:15.209Z,53.9
2019-03-09T09:45:15.208Z,53.6
2019-03-09T09:48:15.050Z,53.5
2019-03-09T09:51:15.902Z,53.0
2019-03-09T09:54:15.968Z,53.2
2019-03-09T09:57:15.910Z,53.0
2019-03-09T10:00:15.875Z,52.6
2019-03-09T10:03:15.749Z,52.4
2019-03-09T10:06:15.619Z,52.5
2019-03-09T10:09:15.308Z,52.5
2019-03-09T10:12:15.207Z,52.0
2019-03-09T10:15:15.931Z,52.0
2019-03-09T10:18:15.002Z,51.3
2019-03-09T10:21:15.960Z,51.2
2019-03-09T10:24:15.876Z,50.7
2019-03-09T10:27:15.738Z,50.4
2019-03-09T10:30:15.424Z,50.1
2019-03-09T10:33:15.375Z,49.1
2019-03-09T10:36:15.464Z,48.2
2019-03-09T10:39:15.182Z,48.2
2019-03-09T10:42:14.977Z,48.1
2019-03-09T10:45:15.784Z,47.7
2019-03-09T10:48:15.600Z,48.4
2019-03-09T10:51:15.495Z,48.0
2019-03-09T10:54:15.231Z,48.7
2019-03-09T10:57:15.868Z,48.3
2019-03-09T11:00:15.584Z,48.6
2019-03-09T11:03:15.086Z,48.9
2019-03-09T11:06:15.883Z,48.7
2019-03-09T11:09:15.711Z,48.8
2019-03-09T11:12:15.278Z,48.5
2019-03-09T11:15:15.911Z,48.4
2019-03-09T11:18:15.787Z,47.8
2019-03-09T11:21:15.459Z,47.7
2019-03-09T11:24:15.237Z,48.1
2019-03-09T11:27:15.368Z,48.7
2019-03-09T11:30:15.117Z,48.9
2019-03-09T11:33:15.892Z,49.4
2019-03-09T11:36:15.538Z,50.6
2019-03-09T11:39:15.002Z,51.4
2019-03-09T11:42:15.565Z,51.9
2019-03-09T11:45:15.162Z,51.9
2019-03-09T11:48:15.872Z,52.9
2019-03-09T11:51:15.357Z,53.3
2019-03-09T11:54:15.120Z,53.4
2019-03-09T11:57:15.663Z,53.2
2019-03-09T12:00:15.798Z,53.2
2019-03-09T12:03:15.759Z,52.9
2019-03-09T12:06:15.366Z,52.3
2019-03-09T12:09:15.919Z,52.8
2019-03-09T12:12:15.514Z,52.5
2019-03-09T12:15:15.149Z,52.3
2019-03-09T12:18:15.129Z,52.4
2019-03-09T12:21:15.601Z,52.8
2019-03-09T12:24:18.751Z,52.5
2019-03-09T12:27:15.570Z,53.1
2019-03-09T12:30:15.219Z,53.1
2019-03-09T12:33:15.921Z,53.5
2019-03-09T12:36:15.908Z,53.3
2019-03-09T12:39:15.665Z,53.3
2019-03-09T12:42:15.353Z,52.1
2019-03-09T12:45:15.274Z,52.3
2019-03-09T12:48:15.067Z,51.4
2019-03-09T12:51:15.730Z,51.2
2019-03-09T12:54:15.590Z,51.8
2019-03-09T12:57:15.129Z,51.9
2019-03-09T13:00:15.623Z,51.2
2019-03-09T13:03:15.505Z,51.2
2019-03-09T13:06:15.505Z,51.8
2019-03-09T13:09:15.261Z,52.9
2019-03-09T13:12:15.698Z,53.0
2019-03-09T13:15:15.250Z,53.2
2019-03-09T13:18:15.584Z,53.3
2019-03-09T13:21:15.691Z,54.1
2019-03-09T13:24:15.243Z,56.4
2019-03-09T13:27:15.958Z,56.6
2019-03-09T13:30:15.651Z,57.2
2019-03-09T13:33:15.590Z,57.3
2019-03-09T13:36:15.400Z,57.8
2019-03-09T13:39:15.009Z,57.8
2019-03-09T13:42:15.716Z,58.0
2019-03-09T13:45:15.469Z,58.4
2019-03-09T13:48:15.030Z,58.6
2019-03-09T13:51:15.758Z,58.6
2019-03-09T13:54:15.340Z,59.0
2019-03-09T13:57:16.010Z,59.7
2019-03-09T14:00:15.611Z,60.1
2019-03-09T14:03:15.840Z,60.1
2019-03-09T14:06:15.595Z,60.6
2019-03-09T14:09:15.454Z,60.6
2019-03-09T14:12:15.083Z,61.4
2019-03-09T14:15:15.973Z,61.8
2019-03-09T14:18:15.670Z,62.2
2019-03-09T14:21:15.465Z,61.6
2019-03-09T14:24:15.060Z,61.6
2019-03-09T14:27:15.796Z,61.0
2019-03-09T14:30:15.498Z,59.9
2019-03-09T14:33:15.289Z,59.4
2019-03-09T14:36:15.678Z,58.8
2019-03-09T14:39:15.326Z,58.6
2019-03-09T14:42:15.128Z,58.7
2019-03-09T14:45:15.271Z,58.2
2019-03-09T14:48:15.872Z,59.0
2019-03-09T14:51:15.394Z,58.6
2019-03-09T14:54:15.904Z,57.7
2019-03-09T14:57:15.519Z,57.1
2019-03-09T15:00:15.264Z,55.7
2019-03-09T15:03:14.925Z,55.1
2019-03-09T15:06:15.728Z,54.4
2019-03-09T15:09:15.441Z,53.9
2019-03-09T15:12:15.180Z,53.3
2019-03-09T15:15:15.088Z,53.0
2019-03-09T15:18:15.745Z,52.8
2019-03-09T15:21:15.499Z,52.9
2019-03-09T15:24:15.177Z,52.6
2019-03-09T15:27:15.822Z,52.9
2019-03-09T15:30:15.416Z,52.7
2019-03-09T15:33:15.177Z,51.4
2019-03-09T15:36:15.731Z,50.8
2019-03-09T15:39:15.694Z,50.1
2019-03-09T15:42:15.523Z,48.2
2019-03-09T15:45:15.180Z,47.3
2019-03-09T15:48:15.955Z,48.3
2019-03-09T15:51:15.460Z,47.3
2019-03-09T15:54:15.140Z,47.5
2019-03-09T15:57:15.863Z,48.3
2019-03-09T16:00:15.567Z,48.0
2019-03-09T16:03:15.298Z,48.2
2019-03-09T16:06:16.713Z,47.2
2019-03-09T16:09:15.641Z,46.6
2019-03-09T16:12:15.253Z,47.1
2019-03-09T16:15:15.959Z,47.3
2019-03-09T16:18:15.751Z,47.0
2019-03-09T16:21:14.966Z,47.9
2019-03-09T16:24:15.611Z,47.4
2019-03-09T16:27:15.203Z,47.7
2019-03-09T16:30:15.795Z,47.2
2019-03-09T16:33:15.404Z,46.0
2019-03-09T16:36:15.039Z,47.0
2019-03-09T16:39:15.796Z,45.7
2019-03-09T16:42:15.624Z,46.4
2019-03-09T16:45:15.578Z,45.4
2019-03-09T16:48:15.438Z,46.3
2019-03-09T16:51:15.593Z,46.3
2019-03-09T16:54:15.317Z,44.2
2019-03-09T16:57:16.036Z,45.6
2019-03-09T17:00:15.701Z,45.6
2019-03-09T17:03:15.430Z,45.4
2019-03-09T17:06:15.128Z,45.8
2019-03-09T17:09:15.073Z,46.1
2019-03-09T17:12:15.048Z,46.2
2019-03-09T17:15:15.906Z,46.7
2019-03-09T17:18:15.942Z,47.3
2019-03-09T17:21:15.690Z,47.6
2019-03-09T17:24:15.471Z,47.8
2019-03-09T17:27:15.423Z,47.8
2019-03-09T17:30:14.946Z,47.5
2019-03-09T17:33:15.804Z,48.3
2019-03-09T17:36:15.632Z,47.9
2019-03-09T17:39:15.565Z,47.7
2019-03-09T17:42:15.513Z,47.3
2019-03-09T17:45:15.232Z,47.6
2019-03-09T17:48:15.158Z,48.4
2019-03-09T17:51:15.143Z,48.3
2019-03-09T17:54:15.998Z,48.6
2019-03-09T17:57:15.782Z,48.7
2019-03-09T18:00:15.512Z,48.9
2019-03-09T18:03:15.918Z,48.9
2019-03-09T18:06:15.686Z,49.0
2019-03-09T18:09:15.473Z,48.5
2019-03-09T18:12:15.239Z,48.8
2019-03-09T18:15:15.096Z,48.9
2019-03-09T18:18:15.145Z,49.1
2019-03-09T18:21:15.963Z,49.3
2019-03-09T18:24:15.134Z,49.7
2019-03-09T18:27:14.999Z,49.9
2019-03-09T18:30:15.933Z,49.3
2019-03-09T18:33:17.743Z,49.2
2019-03-09T18:36:15.787Z,49.0
2019-03-09T18:39:15.673Z,49.2
2019-03-09T18:42:16.596Z,49.6
2019-03-09T18:45:15.583Z,49.2
2019-03-09T18:48:15.460Z,49.0
2019-03-09T18:51:15.305Z,48.6
2019-03-09T18:54:15.238Z,49.4
2019-03-09T18:57:15.201Z,48.9
2019-03-09T19:00:14.967Z,49.2
2019-03-09T19:03:15.881Z,49.4
2019-03-09T19:06:15.649Z,49.2
2019-03-09T19:09:15.479Z,49.4
2019-03-09T19:12:15.170Z,49.2
2019-03-09T19:15:15.088Z,49.9
2019-03-09T19:18:15.863Z,49.6
2019-03-09T19:21:15.763Z,49.6
2019-03-09T19:24:15.590Z,49.5
2019-03-09T19:27:15.372Z,49.4
2019-03-09T19:30:15.317Z,50.0
2019-03-09T19:33:15.121Z,49.5
2019-03-09T19:36:15.606Z,49.0
2019-03-09T19:39:15.539Z,49.6
2019-03-09T19:42:15.285Z,50.3
2019-03-09T19:45:15.929Z,49.8
2019-03-09T19:48:15.618Z,49.7
2019-03-09T19:51:15.421Z,50.1
2019-03-09T19:54:15.268Z,49.7
2019-03-09T19:57:15.004Z,49.6
2019-03-09T20:00:15.934Z,49.7
2019-03-09T20:03:15.843Z,49.6
2019-03-09T20:06:15.731Z,50.1
2019-03-09T20:09:15.490Z,49.1
2019-03-09T20:12:15.279Z,49.7
2019-03-09T20:15:15.069Z,49.4
2019-03-09T20:18:15.910Z,49.7
2019-03-09T20:21:15.658Z,49.2
2019-03-09T20:24:15.742Z,49.6
2019-03-09T20:27:15.718Z,49.5
2019-03-09T20:30:15.556Z,49.5
2019-03-09T20:33:15.269Z,49.8
2019-03-09T20:36:15.291Z,50.2
2019-03-09T20:39:15.191Z,50.0
2019-03-09T20:42:14.960Z,49.8
2019-03-09T20:45:15.783Z,50.0
2019-03-09T20:48:15.445Z,49.8
2019-03-09T20:51:15.253Z,50.2
2019-03-09T20:54:15.084Z,50.5
2019-03-09T20:57:15.787Z,50.1
2019-03-09T21:00:15.616Z,50.1
2019-03-09T21:03:15.731Z,50.5
2019-03-09T21:06:15.559Z,50.0
2019-03-09T21:09:15.451Z,50.4
2019-03-09T21:12:15.251Z,50.8
2019-03-09T21:15:15.095Z,50.2
2019-03-09T21:18:15.214Z,51.2
2019-03-09T21:21:15.847Z,50.5
2019-03-09T21:24:15.909Z,50.2
2019-03-09T21:27:15.653Z,50.2
2019-03-09T21:30:15.540Z,50.3
2019-03-09T21:33:15.346Z,50.1
2019-03-09T21:36:15.253Z,49.8
2019-03-09T21:39:15.029Z,49.9
2019-03-09T21:42:15.901Z,50.0
2019-03-09T21:45:15.720Z,49.6
2019-03-09T21:48:15.519Z,50.6
2019-03-09T21:51:15.727Z,49.8
2019-03-09T21:54:15.552Z,49.2
2019-03-09T21:57:15.270Z,49.7
2019-03-09T22:00:20.113Z,49.1
2019-03-09T22:03:15.790Z,49.1
2019-03-09T22:06:15.567Z,49.7
2019-03-09T22:09:15.216Z,49.2
2019-03-09T22:12:15.094Z,49.4
2019-03-09T22:15:15.807Z,49.1
2019-03-09T22:18:15.506Z,49.6
2019-03-09T22:21:15.204Z,49.7
2019-03-09T22:24:15.866Z,49.1
2019-03-09T22:27:15.534Z,49.1
2019-03-09T22:30:15.251Z,49.1
2019-03-09T22:33:15.065Z,49.4
2019-03-09T22:36:15.753Z,49.2
2019-03-09T22:39:15.494Z,48.8
2019-03-09T22:42:15.134Z,48.2
2019-03-09T22:45:15.931Z,48.6
2019-03-09T22:48:15.897Z,48.9
2019-03-09T22:51:15.250Z,48.4
2019-03-09T22:54:15.083Z,49.1
2019-03-09T22:57:15.912Z,49.2
2019-03-09T23:00:15.616Z,49.2
2019-03-09T23:03:15.487Z,48.9
2019-03-09T23:06:15.317Z,50.2
2019-03-09T23:09:15.021Z,49.1
2019-03-09T23:12:15.818Z,49.7
2019-03-09T23:15:15.629Z,49.6
2019-03-09T23:18:15.411Z,48.5
2019-03-09T23:21:15.142Z,48.7
2019-03-09T23:24:15.893Z,49.1
2019-03-09T23:27:15.713Z,49.6
2019-03-09T23:30:15.556Z,49.8
2019-03-09T23:33:15.597Z,48.9
2019-03-09T23:36:15.364Z,50.0
2019-03-09T23:39:15.158Z,49.7
2019-03-09T23:42:15.782Z,49.6
2019-03-09T23:45:15.507Z,49.3
2019-03-09T23:48:15.553Z,49.7
2019-03-09T23:51:15.455Z,49.5
2019-03-09T23:54:15.210Z,50.7
2019-03-09T23:57:15.830Z,50.2
